Skip to content
You are here: Gozo Weather
Gozo Weather Station for the very latest live weather conditions from Gozo and Malta
 
 TIME   TEMPERATURE   WINDSPEED   DIRECTION   HUMIDITY   BAROMETER   RAINFALL 
9:50 26.2°C (79.2°F) 0.0 kmh (0.0 mph) N 64% 1019.0hPa (30.09 inHg) 0.0mm (0.00 in.)
8:50 26.5°C (79.7 °F) 0.0 kmh (0.0 mph) N 62% 1018.0hPa (30.06 inHg) 0.0mm (0.00 in.)
7:50 27.0°C (80.6 °F) 5.6 kmh (3.5 mph) NNE 59% 1018.0hPa (30.06 inHg) 0.0mm (0.00 in.)
6:50 29.2°C (84.6 °F) 5.6 kmh (3.5 mph) W 59% 1018.0hPa (30.06 inHg) 0.0mm (0.00 in.)
5:50 29.3°C (84.7 °F) 11.1 kmh (6.9 mph) W 58% 1018.0hPa (30.06 inHg) 0.0mm (0.00 in.)
4:50 29.7°C (85.5 °F) 13.0 kmh (8.1 mph) NNW 53% 1018.0hPa (30.06 inHg) 0.0mm (0.00 in.)
3:43 30.2°C (86.4 °F) 18.5 kmh (11.5 mph) SSW 48% 1018.0hPa (30.06 inHg) 0.0mm (0.00 in.)
2:43 30.6°C (87.1 °F) 16.7 kmh (10.4 mph) SSW 47% 1019.0hPa (30.09 inHg) 0.0mm (0.00 in.)
1:43 30.2°C (86.4 °F) 18.5 kmh (11.5 mph) N 51% 1019.0hPa (30.09 inHg) 0.0mm (0.00 in.)
12:43 29.7°C (85.5 °F) 18.5 kmh (11.5 mph) SSW 51% 1019.0hPa (30.09 inHg) 0.0mm (0.00 in.)
11:43 29.3°C (84.7 °F) 16.7 kmh (10.4 mph) SSW 57% 1019.0hPa (30.09 inHg) 0.0mm (0.00 in.)
10:43 28.7°C (83.7 °F) 14.8 kmh (9.2 mph) NNW 61% 1020.0hPa (30.12 inHg) 0.0mm (0.00 in.)
9:43 27.6°C (81.7 °F) 14.8 kmh (9.2 mph) SSW 66% 1019.0hPa (30.09 inHg) 0.0mm (0.00 in.)
8:37 26.9°C (80.4 °F) 14.8 kmh (9.2 mph) SSW 69% 1019.0hPa (30.09 inHg) 0.0mm (0.00 in.)
7:37 25.3°C (77.5 °F) 16.7 kmh (10.4 mph) ENE 71% 1019.0hPa (30.09 inHg) 0.0mm (0.00 in.)
6:37 25.2°C (77.4 °F) 11.1 kmh (6.9 mph) S 73% 1019.0hPa (30.09 inHg) 0.0mm (0.00 in.)
5:37 25.4°C (77.7 °F) 13.0 kmh (8.1 mph) NNW 72% 1019.0hPa (30.09 inHg) 0.0mm (0.00 in.)
4:37 25.4°C (77.7 °F) 14.8 kmh (9.2 mph) S 71% 1019.0hPa (30.09 inHg) 0.0mm (0.00 in.)
3:37 25.4°C (77.7 °F) 5.6 kmh (3.5 mph) NNE 70% 1019.0hPa (30.09 inHg) 0.0mm (0.00 in.)
2:37 25.5°C (77.9 °F) 11.1 kmh (6.9 mph) NNW 69% 1019.0hPa (30.09 inHg) 0.0mm (0.00 in.)
1:37 25.6°C (78.1 °F) 0.0 kmh (0.0 mph) N 68% 1019.0hPa (30.09 inHg) 0.0mm (0.00 in.)
12:37 25.7°C (78.3 °F) 0.0 kmh (0.0 mph) N 69% 1019.0hPa (30.09 inHg) 0.0mm (0.00 in.)
11:37 25.8°C (78.4 °F) 0.0 kmh (0.0 mph) N 68% 1020.0hPa (30.12 inHg) 0.0mm (0.00 in.)
10:31 25.6°C (78.1 °F) 0.0 kmh (0.0 mph) N 67% 1020.0hPa (30.12 inHg) 0.0mm (0.00 in.)

You need the latest version of Flash Player to view some of our content.


Why not download and install the latest version now?
It will only take you a moment and will ensure that you can view all the latest flash designed websites.

Translate this page

Animated Satellite

Click per aprire http://www.gozo.ws/Animation.php
copyright 2015 EUMETSAT

European Lightning Activity


Please click image for full size

Sponsored Links